Time;durP1;ratioP1;P1;durP2;ratioP2;P2;SDS_P1;SDS_P2;PMS_P1;PMS_P2;Temp;Humidity;BMP_temperature;BMP_pressure;BME280_temperature;BME280_humidity;BME280_pressure;Samples;Min_cycle;Max_cycle;Signal;HPM_P1;HPM_P2
2023/04/14 00:01:01;;;;;;;7.55;3.20;;;;;;;;;;5072747;28;20410;-55
2023/04/14 00:03:27;;;;;;;5.32;2.70;;;;;;;;;;5073613;28;20044;-52
2023/04/14 00:05:54;;;;;;;6.82;3.08;;;;;;;;;;5073391;28;20059;-55
2023/04/14 00:08:21;;;;;;;7.45;3.50;;;;;;;;;;5072933;28;20102;-55
2023/04/14 00:10:48;;;;;;;7.03;2.67;;;;;;;;;;5072846;28;20060;-52
2023/04/14 00:13:16;;;;;;;6.18;2.70;;;;;;;;;;5072881;28;20052;-57
2023/04/14 00:15:43;;;;;;;5.93;2.58;;;;;;;;;;5072932;28;20056;-56
2023/04/14 00:18:10;;;;;;;7.93;3.42;;;;;;;;;;5072786;28;20049;-58
2023/04/14 00:20:37;;;;;;;7.10;3.53;;;;;;;;;;5072674;28;20111;-55
2023/04/14 00:23:03;;;;;;;7.03;3.25;;;;;;;;;;5072437;28;20044;-51
2023/04/14 00:25:30;;;;;;;7.07;2.70;;;;;;;;;;5072749;28;20494;-50
2023/04/14 00:27:57;;;;;;;6.25;3.00;;;;;;;;;;5072660;28;20110;-56
2023/04/14 00:30:25;;;;;;;6.70;3.15;;;;;;;;;;5072857;28;20062;-55
2023/04/14 00:32:52;;;;;;;6.05;3.30;;;;;;;;;;5073326;28;20448;-55
2023/04/14 00:35:19;;;;;;;5.55;3.08;;;;;;;;;;5072947;28;20052;-57
2023/04/14 00:37:46;;;;;;;7.95;3.35;;;;;;;;;;5072895;28;20055;-53
2023/04/14 00:40:13;;;;;;;6.65;3.67;;;;;;;;;;5073077;28;20331;-53
2023/04/14 00:42:44;;;;;;;7.05;2.83;;;;;;;;;;5072317;28;20044;-57
2023/04/14 00:45:11;;;;;;;6.72;3.00;;;;;;;;;;5072499;28;20048;-54
2023/04/14 00:47:45;;;;;;;6.55;3.10;;;;;;;;;;5072090;28;20049;-55
2023/04/14 00:50:13;;;;;;;7.22;3.00;;;;;;;;;;5071959;28;20143;-54
2023/04/14 00:52:42;;;;;;;5.97;2.85;;;;;;;;;;5072359;28;20048;-54
2023/04/14 00:55:10;;;;;;;6.75;2.55;;;;;;;;;;5072025;28;20040;-53
2023/04/14 00:57:37;;;;;;;5.68;2.70;;;;;;;;;;5072121;28;20130;-51
2023/04/14 01:00:04;;;;;;;5.65;2.80;;;;;;;;;;5071773;28;20044;-52
2023/04/14 01:02:31;;;;;;;4.72;2.58;;;;;;;;;;5071803;28;20387;-54
2023/04/14 01:05:00;;;;;;;4.95;2.47;;;;;;;;;;5071955;28;20048;-50
2023/04/14 01:07:28;;;;;;;5.65;2.75;;;;;;;;;;5071804;28;20048;-51
2023/04/14 01:09:56;;;;;;;7.38;3.05;;;;;;;;;;5071614;28;20041;-54
2023/04/14 01:12:31;;;;;;;5.53;2.58;;;;;;;;;;5071742;28;20045;-55
2023/04/14 01:15:05;;;;;;;5.38;2.95;;;;;;;;;;5071791;28;20044;-51
2023/04/14 01:17:37;;;;;;;7.32;2.83;;;;;;;;;;5071993;28;20078;-53
2023/04/14 01:20:14;;;;;;;9.70;2.92;;;;;;;;;;5071444;28;20135;-54
2023/04/14 01:22:48;;;;;;;6.28;2.30;;;;;;;;;;5071640;28;20063;-56
2023/04/14 01:25:59;;;;;;;5.70;2.50;;;;;;;;;;5071895;28;20048;-56
2023/04/14 01:28:37;;;;;;;;;;;;;;;;;;5046848;28;20053;-50
2023/04/14 01:31:17;;;;;;;5.25;2.00;;;;;;;;;;5071639;28;19924;-50
2023/04/14 01:33:49;;;;;;;4.60;2.05;;;;;;;;;;5071473;28;20040;-50
2023/04/14 01:36:26;;;;;;;3.33;1.60;;;;;;;;;;5071528;28;20136;-52
2023/04/14 01:38:54;;;;;;;3.75;1.80;;;;;;;;;;5071763;28;20067;-51
2023/04/14 01:41:22;;;;;;;2.55;1.33;;;;;;;;;;5071523;28;20052;-54
2023/04/14 01:43:54;;;;;;;4.53;1.90;;;;;;;;;;5071383;28;20060;-55
2023/04/14 01:46:22;;;;;;;3.35;1.60;;;;;;;;;;5071554;28;20501;-54
2023/04/14 01:48:49;;;;;;;3.67;1.70;;;;;;;;;;5071352;28;20072;-52
2023/04/14 01:51:19;;;;;;;4.05;1.60;;;;;;;;;;5071489;28;20094;-56
2023/04/14 01:53:47;;;;;;;3.97;1.63;;;;;;;;;;5071099;28;20052;-56
2023/04/14 01:56:16;;;;;;;4.65;1.88;;;;;;;;;;5071376;28;20102;-54
2023/04/14 01:58:47;;;;;;;3.97;1.90;;;;;;;;;;5071398;28;20058;-57
2023/04/14 02:01:15;;;;;;;3.85;1.60;;;;;;;;;;5071322;28;20047;-53
2023/04/14 02:03:45;;;;;;;3.38;1.60;;;;;;;;;;5071487;28;20464;-55
2023/04/14 02:06:13;;;;;;;5.03;1.88;;;;;;;;;;5071341;28;20052;-53
2023/04/14 02:08:42;;;;;;;4.40;2.13;;;;;;;;;;5071019;28;20436;-55
2023/04/14 02:11:10;;;;;;;4.70;2.03;;;;;;;;;;5071242;28;20140;-55
2023/04/14 02:13:41;;;;;;;4.78;2.03;;;;;;;;;;5074812;28;20049;-54
2023/04/14 02:16:10;;;;;;;4.45;2.00;;;;;;;;;;5075119;28;20045;-55
2023/04/14 02:18:39;;;;;;;4.80;2.03;;;;;;;;;;5075478;28;20555;-56
2023/04/14 02:21:08;;;;;;;4.53;2.05;;;;;;;;;;5075027;28;20052;-56
2023/04/14 02:23:35;;;;;;;4.72;2.40;;;;;;;;;;5074694;28;20044;-57
2023/04/14 02:26:09;;;;;;;4.97;2.78;;;;;;;;;;5075279;28;20048;-57
2023/04/14 02:28:41;;;;;;;4.90;2.38;;;;;;;;;;5074894;28;20044;-57
2023/04/14 02:31:11;;;;;;;6.53;3.00;;;;;;;;;;5075081;28;20040;-56
2023/04/14 02:33:39;;;;;;;6.30;3.15;;;;;;;;;;5074917;28;20545;-57
2023/04/14 02:36:13;;;;;;;8.23;3.08;;;;;;;;;;5074890;28;20512;-54
2023/04/14 02:38:46;;;;;;;7.00;3.20;;;;;;;;;;5074968;28;20136;-55
2023/04/14 02:41:22;;;;;;;5.47;2.90;;;;;;;;;;5074759;28;20498;-52
2023/04/14 02:43:54;;;;;;;6.63;3.05;;;;;;;;;;5074742;28;20561;-58
2023/04/14 02:46:23;;;;;;;5.97;3.53;;;;;;;;;;5074639;28;20482;-54
2023/04/14 02:48:51;;;;;;;9.02;3.38;;;;;;;;;;5074367;28;20471;-55
2023/04/14 02:51:21;;;;;;;7.50;3.30;;;;;;;;;;5074558;28;20098;-56
2023/04/14 02:53:48;;;;;;;6.38;3.40;;;;;;;;;;5074388;28;20052;-54
2023/04/14 02:56:15;;;;;;;7.40;3.17;;;;;;;;;;5074474;28;20044;-54
2023/04/14 02:58:43;;;;;;;7.65;3.53;;;;;;;;;;5074296;28;20422;-54
2023/04/14 03:01:10;;;;;;;4.80;2.70;;;;;;;;;;5074253;28;20052;-53
2023/04/14 03:03:38;;;;;;;6.32;2.42;;;;;;;;;;5074262;28;20131;-53
2023/04/14 03:06:07;;;;;;;4.10;2.13;;;;;;;;;;5074349;28;20052;-55
2023/04/14 03:08:38;;;;;;;4.25;2.15;;;;;;;;;;5074850;28;20455;-55
2023/04/14 03:11:04;;;;;;;;;;;;;;;;;;5074599;28;20045;-52
2023/04/14 03:13:34;;;;;;;4.15;2.28;;;;;;;;;;5074061;28;19924;-57
2023/04/14 03:16:03;;;;;;;4.55;1.98;;;;;;;;;;5074240;28;20056;-54
2023/04/14 03:18:30;;;;;;;4.70;2.25;;;;;;;;;;5074243;28;20052;-55
2023/04/14 03:20:59;;;;;;;4.97;2.50;;;;;;;;;;5073934;28;20436;-50
2023/04/14 03:23:27;;;;;;;5.50;2.47;;;;;;;;;;5074143;28;20052;-55
2023/04/14 03:25:57;;;;;;;4.85;2.50;;;;;;;;;;5073982;28;20122;-53
2023/04/14 03:28:29;;;;;;;5.28;2.45;;;;;;;;;;5074161;28;20393;-58
2023/04/14 03:31:00;;;;;;;5.25;2.60;;;;;;;;;;5073826;28;20374;-55
2023/04/14 03:33:29;;;;;;;;;;;;;;;;;;5074190;28;20086;-52
2023/04/14 03:35:57;;;;;;;6.03;2.67;;;;;;;;;;5073758;28;20443;-56
2023/04/14 03:38:26;;;;;;;6.05;2.90;;;;;;;;;;5073886;28;20153;-53
2023/04/14 03:40:57;;;;;;;5.63;2.78;;;;;;;;;;5073369;28;20582;-54
2023/04/14 03:43:26;;;;;;;5.57;2.47;;;;;;;;;;5073945;28;20427;-55
2023/04/14 03:45:53;;;;;;;5.43;2.80;;;;;;;;;;5073812;28;20123;-59
2023/04/14 03:48:20;;;;;;;4.90;2.67;;;;;;;;;;5073530;28;20489;-53
2023/04/14 03:50:50;;;;;;;5.63;3.10;;;;;;;;;;5073528;28;20052;-55
2023/04/14 03:53:19;;;;;;;5.70;3.08;;;;;;;;;;5073624;28;20103;-56
2023/04/14 03:55:47;;;;;;;6.75;3.47;;;;;;;;;;5073728;28;20060;-53
2023/04/14 03:58:17;;;;;;;7.15;3.90;;;;;;;;;;5073238;28;20044;-55
2023/04/14 04:00:45;;;;;;;6.68;3.95;;;;;;;;;;5073210;28;20052;-57
2023/04/14 04:03:14;;;;;;;8.23;3.88;;;;;;;;;;5073211;28;20049;-54
2023/04/14 04:05:43;;;;;;;7.57;4.38;;;;;;;;;;5073295;28;20110;-55
2023/04/14 04:08:10;;;;;;;7.30;3.95;;;;;;;;;;5073044;28;20060;-56
2023/04/14 04:10:38;;;;;;;8.38;4.50;;;;;;;;;;5073149;28;20055;-56
2023/04/14 04:13:09;;;;;;;8.05;4.10;;;;;;;;;;5072907;28;20136;-55
2023/04/14 04:15:38;;;;;;;7.88;4.18;;;;;;;;;;5073421;28;20044;-57
2023/04/14 04:18:07;;;;;;;11.15;5.07;;;;;;;;;;5073059;28;20136;-58
2023/04/14 04:20:36;;;;;;;6.47;4.00;;;;;;;;;;5072564;28;20106;-56
2023/04/14 04:23:05;;;;;;;11.10;5.90;;;;;;;;;;5072872;28;20048;-56
2023/04/14 04:25:35;;;;;;;10.65;5.57;;;;;;;;;;5073015;28;20044;-59
2023/04/14 04:28:02;;;;;;;11.77;6.35;;;;;;;;;;5072729;28;20547;-58
2023/04/14 04:30:31;;;;;;;10.55;5.30;;;;;;;;;;5072554;28;20143;-57
2023/04/14 04:33:02;;;;;;;10.48;5.70;;;;;;;;;;5072323;28;20155;-55
2023/04/14 04:35:29;;;;;;;11.27;5.93;;;;;;;;;;5072145;28;20044;-56
2023/04/14 04:37:59;;;;;;;10.52;5.63;;;;;;;;;;5072675;28;20063;-56
2023/04/14 04:40:26;;;;;;;12.07;6.03;;;;;;;;;;5072858;28;20053;-54
2023/04/14 04:42:53;;;;;;;12.18;6.88;;;;;;;;;;5072253;28;20061;-57
2023/04/14 04:45:43;;;;;;;10.50;6.25;;;;;;;;;;5072407;28;20387;-61
2023/04/14 04:48:12;;;;;;;13.50;7.45;;;;;;;;;;5072357;28;20059;-58
2023/04/14 04:50:39;;;;;;;11.05;5.80;;;;;;;;;;5072379;28;20482;-58
2023/04/14 04:53:05;;;;;;;12.63;7.22;;;;;;;;;;5072547;28;20138;-58
2023/04/14 04:55:32;;;;;;;12.57;6.63;;;;;;;;;;5072324;28;20044;-56
2023/04/14 04:57:59;;;;;;;12.93;7.13;;;;;;;;;;5071977;28;20048;-58
2023/04/14 05:00:27;;;;;;;11.48;7.18;;;;;;;;;;5072527;28;20044;-56
2023/04/14 05:02:54;;;;;;;13.10;6.50;;;;;;;;;;5072350;28;20106;-58
2023/04/14 05:05:22;;;;;;;11.13;5.57;;;;;;;;;;5072516;28;20489;-58
2023/04/14 05:07:49;;;;;;;9.15;5.22;;;;;;;;;;5072430;28;20409;-59
2023/04/14 05:10:16;;;;;;;9.00;5.65;;;;;;;;;;5072047;28;20041;-57
2023/04/14 05:12:43;;;;;;;9.48;6.05;;;;;;;;;;5072152;28;20048;-59
2023/04/14 05:15:11;;;;;;;12.25;6.40;;;;;;;;;;5072263;28;20045;-58
2023/04/14 05:17:38;;;;;;;9.73;5.97;;;;;;;;;;5071973;28;20395;-59
2023/04/14 05:20:06;;;;;;;12.77;7.03;;;;;;;;;;5072082;28;20059;-59
2023/04/14 05:22:34;;;;;;;10.82;6.75;;;;;;;;;;5091335;22;20113;-77
2023/04/14 05:25:01;;;;;;;11.07;6.25;;;;;;;;;;5073804;28;20083;-77
2023/04/14 05:27:28;;;;;;;11.13;6.20;;;;;;;;;;5075632;28;20083;-78
2023/04/14 05:29:54;;;;;;;10.43;5.80;;;;;;;;;;5075958;28;20044;-78
2023/04/14 05:32:21;;;;;;;12.23;6.60;;;;;;;;;;5075683;28;20075;-77
2023/04/14 05:34:48;;;;;;;10.10;5.95;;;;;;;;;;5074748;28;20080;-76
2023/04/14 05:37:14;;;;;;;10.00;5.47;;;;;;;;;;5072296;28;20087;-76
2023/04/14 05:39:42;;;;;;;11.85;5.60;;;;;;;;;;5072585;28;20084;-76
2023/04/14 05:42:09;;;;;;;12.40;5.88;;;;;;;;;;5072502;28;20072;-77
2023/04/14 05:44:36;;;;;;;8.85;5.70;;;;;;;;;;5072199;28;20048;-77
2023/04/14 05:47:02;;;;;;;10.95;5.95;;;;;;;;;;5072223;28;20117;-76
2023/04/14 05:49:29;;;;;;;12.07;5.78;;;;;;;;;;5073245;28;20467;-77
2023/04/14 05:51:56;;;;;;;12.77;5.88;;;;;;;;;;5076632;28;20068;-77
2023/04/14 05:54:23;;;;;;;10.80;5.38;;;;;;;;;;5074481;28;20048;-77
2023/04/14 05:56:51;;;;;;;12.95;5.55;;;;;;;;;;5073010;28;20054;-77
2023/04/14 05:59:18;;;;;;;14.77;5.90;;;;;;;;;;5072358;28;20079;-77
2023/04/14 06:01:44;;;;;;;11.10;5.80;;;;;;;;;;5072835;28;20080;-76
2023/04/14 06:04:11;;;;;;;10.13;6.22;;;;;;;;;;5071251;28;20301;-77
2023/04/14 06:06:38;;;;;;;10.85;6.65;;;;;;;;;;5071473;28;20422;-76
2023/04/14 06:09:04;;;;;;;10.43;6.57;;;;;;;;;;5071854;28;20080;-76
2023/04/14 06:11:31;;;;;;;9.88;6.07;;;;;;;;;;5073337;28;20094;-77
2023/04/14 06:14:01;;;;;;;10.80;6.45;;;;;;;;;;5071526;28;20048;-77
2023/04/14 06:16:28;;;;;;;11.73;6.88;;;;;;;;;;5071630;28;20109;-77
2023/04/14 06:18:54;;;;;;;10.02;6.18;;;;;;;;;;5071502;28;20509;-77
2023/04/14 06:21:21;;;;;;;10.73;6.43;;;;;;;;;;5071467;28;20044;-77
2023/04/14 06:23:47;;;;;;;9.77;6.20;;;;;;;;;;5071518;28;20076;-77
2023/04/14 06:26:14;;;;;;;10.10;6.57;;;;;;;;;;5071761;28;20048;-77
2023/04/14 06:28:41;;;;;;;9.70;6.35;;;;;;;;;;5071699;28;20414;-77
2023/04/14 06:31:09;;;;;;;11.70;7.05;;;;;;;;;;5071936;28;20066;-77
2023/04/14 06:33:35;;;;;;;10.82;6.97;;;;;;;;;;5071421;28;20047;-77
2023/04/14 06:36:02;;;;;;;11.77;7.60;;;;;;;;;;5074902;28;20071;-77
2023/04/14 06:38:29;;;;;;;13.27;7.47;;;;;;;;;;5073642;28;20060;-76
2023/04/14 06:40:55;;;;;;;11.88;6.53;;;;;;;;;;5071578;28;20554;-77
2023/04/14 06:43:22;;;;;;;10.80;6.80;;;;;;;;;;5071597;28;20044;-77
2023/04/14 06:45:49;;;;;;;10.10;6.70;;;;;;;;;;5071813;28;20084;-77
2023/04/14 06:48:17;;;;;;;13.80;6.85;;;;;;;;;;5071431;28;20499;-76
2023/04/14 06:50:44;;;;;;;13.85;6.13;;;;;;;;;;5071482;28;20040;-76
2023/04/14 06:53:10;;;;;;;10.43;6.05;;;;;;;;;;5071342;28;20040;-78
2023/04/14 06:55:41;;;;;;;8.85;5.05;;;;;;;;;;5071513;28;20140;-77
2023/04/14 06:58:07;;;;;;;10.82;5.43;;;;;;;;;;5072608;28;20040;-77
2023/04/14 07:00:35;;;;;;;10.90;6.35;;;;;;;;;;5075502;28;20131;-77
2023/04/14 07:03:01;;;;;;;9.15;5.40;;;;;;;;;;5074527;28;20555;-77
2023/04/14 07:05:29;;;;;;;12.13;5.93;;;;;;;;;;5074987;28;20140;-77
2023/04/14 07:07:56;;;;;;;10.80;6.30;;;;;;;;;;5074992;28;20083;-77
2023/04/14 07:10:22;;;;;;;10.73;5.57;;;;;;;;;;5074699;28;20080;-77
2023/04/14 07:12:49;;;;;;;8.75;5.68;;;;;;;;;;5074616;28;20051;-77
2023/04/14 07:15:16;;;;;;;9.40;5.28;;;;;;;;;;5074422;28;20040;-77
2023/04/14 07:17:43;;;;;;;10.98;5.93;;;;;;;;;;5075132;28;20080;-77
2023/04/14 07:20:10;;;;;;;8.50;5.35;;;;;;;;;;5074792;28;20044;-77
2023/04/14 07:22:38;;;;;;;10.93;5.70;;;;;;;;;;5074783;28;20087;-76
2023/04/14 07:25:06;;;;;;;11.45;5.40;;;;;;;;;;5074644;28;20127;-77
2023/04/14 07:27:32;;;;;;;11.68;4.93;;;;;;;;;;5074905;28;20056;-77
2023/04/14 07:29:59;;;;;;;7.45;4.72;;;;;;;;;;5074419;28;20678;-76
2023/04/14 07:32:26;;;;;;;13.35;5.07;;;;;;;;;;5074630;28;20113;-77
2023/04/14 07:34:52;;;;;;;8.88;4.68;;;;;;;;;;5075479;28;20127;-77
2023/04/14 07:37:19;;;;;;;9.00;4.80;;;;;;;;;;5076707;28;20067;-77
2023/04/14 07:39:47;;;;;;;10.40;5.20;;;;;;;;;;5076803;28;20056;-84
2023/04/14 07:42:14;;;;;;;8.88;4.78;;;;;;;;;;5078967;28;20059;-79
2023/04/14 07:44:41;;;;;;;9.55;4.88;;;;;;;;;;5078060;28;20048;-77
2023/04/14 07:47:08;;;;;;;9.27;5.32;;;;;;;;;;5077262;28;20047;-81
2023/04/14 07:49:35;;;;;;;10.00;4.78;;;;;;;;;;5079254;28;20098;-80
2023/04/14 07:52:02;;;;;;;9.32;4.47;;;;;;;;;;5080396;28;20561;-79
2023/04/14 07:54:30;;;;;;;8.18;4.70;;;;;;;;;;5073873;28;20051;-78
2023/04/14 07:56:58;;;;;;;8.07;4.43;;;;;;;;;;5073187;28;20102;-78
2023/04/14 07:59:25;;;;;;;7.47;4.05;;;;;;;;;;5072707;28;20565;-77
2023/04/14 08:01:52;;;;;;;9.18;4.57;;;;;;;;;;5073244;28;20094;-77
2023/04/14 08:04:18;;;;;;;10.52;4.80;;;;;;;;;;5072374;28;20055;-77
2023/04/14 08:06:45;;;;;;;8.27;5.03;;;;;;;;;;5072362;28;20136;-77
2023/04/14 08:09:13;;;;;;;8.13;4.43;;;;;;;;;;5071446;28;20110;-77
2023/04/14 08:11:40;;;;;;;7.85;4.00;;;;;;;;;;5070754;28;20041;-77
2023/04/14 08:14:08;;;;;;;8.63;4.82;;;;;;;;;;5073881;28;20550;-77
2023/04/14 08:16:35;;;;;;;8.52;4.18;;;;;;;;;;5081805;28;20483;-77
2023/04/14 08:19:02;;;;;;;10.65;5.57;;;;;;;;;;5072178;28;20044;-78
2023/04/14 08:21:31;;;;;;;9.75;4.78;;;;;;;;;;5072676;28;20110;-77
2023/04/14 08:23:58;;;;;;;10.05;4.55;;;;;;;;;;5071614;28;20045;-78
2023/04/14 08:26:26;;;;;;;9.98;5.63;;;;;;;;;;5072007;28;20079;-79
2023/04/14 08:28:53;;;;;;;10.48;5.10;;;;;;;;;;5073049;28;20155;-78
2023/04/14 08:31:22;;;;;;;7.15;4.40;;;;;;;;;;5072029;28;20423;-77
2023/04/14 08:33:49;;;;;;;7.32;4.07;;;;;;;;;;5071661;28;20080;-77
2023/04/14 08:36:16;;;;;;;9.07;4.85;;;;;;;;;;5071483;28;20575;-77
2023/04/14 08:38:45;;;;;;;8.55;4.93;;;;;;;;;;5071406;28;20695;-78
2023/04/14 08:41:14;;;;;;;7.30;4.40;;;;;;;;;;5071290;28;20059;-76
2023/04/14 08:43:41;;;;;;;12.20;5.43;;;;;;;;;;5071186;28;20044;-77
2023/04/14 08:46:10;;;;;;;12.35;5.40;;;;;;;;;;5072339;28;20132;-77
2023/04/14 08:48:45;;;;;;;7.43;5.18;;;;;;;;;;5074664;28;20044;-78
2023/04/14 08:51:18;;;;;;;9.48;5.20;;;;;;;;;;5072909;28;20075;-78
2023/04/14 08:53:48;;;;;;;7.65;4.50;;;;;;;;;;5073788;28;20047;-77
2023/04/14 08:56:17;;;;;;;9.43;4.83;;;;;;;;;;5073228;28;20036;-78
2023/04/14 08:58:46;;;;;;;8.70;4.88;;;;;;;;;;5073083;28;20316;-77
2023/04/14 09:01:13;;;;;;;8.40;5.50;;;;;;;;;;5074930;28;20064;-77
2023/04/14 09:03:43;;;;;;;7.70;5.03;;;;;;;;;;5074511;28;20036;-77
2023/04/14 09:06:10;;;;;;;16.60;5.80;;;;;;;;;;5076315;28;20328;-78
2023/04/14 09:08:38;;;;;;;10.93;5.20;;;;;;;;;;5074020;28;20041;-77
2023/04/14 09:11:05;;;;;;;8.77;5.00;;;;;;;;;;5084419;28;20068;-77
2023/04/14 09:13:31;;;;;;;9.40;5.45;;;;;;;;;;5086112;28;20094;-76
2023/04/14 09:16:00;;;;;;;10.18;6.30;;;;;;;;;;5085325;28;20190;-77
2023/04/14 09:18:30;;;;;;;9.25;5.20;;;;;;;;;;5082972;28;20083;-76
2023/04/14 09:20:58;;;;;;;10.68;6.43;;;;;;;;;;5078677;28;20487;-77
2023/04/14 09:23:25;;;;;;;10.77;5.78;;;;;;;;;;5072168;28;20041;-76
2023/04/14 09:25:52;;;;;;;11.95;5.03;;;;;;;;;;5072214;28;20083;-76
2023/04/14 09:28:18;;;;;;;9.75;5.28;;;;;;;;;;5070572;28;20506;-78
2023/04/14 09:30:45;;;;;;;11.98;5.72;;;;;;;;;;5070604;28;20132;-77
2023/04/14 09:33:19;;;;;;;11.52;5.75;;;;;;;;;;5070557;28;20040;-77
2023/04/14 09:35:47;;;;;;;6.57;4.55;;;;;;;;;;5070430;28;20048;-77
2023/04/14 09:38:16;;;;;;;8.70;4.97;;;;;;;;;;5070098;28;20080;-77
2023/04/14 09:40:43;;;;;;;9.68;4.82;;;;;;;;;;5069995;28;20044;-77
2023/04/14 09:43:23;;;;;;;9.10;5.07;;;;;;;;;;5069766;28;20513;-77
2023/04/14 09:45:49;;;;;;;9.18;5.50;;;;;;;;;;5070223;28;20044;-77
2023/04/14 09:48:16;;;;;;;8.77;5.20;;;;;;;;;;5070404;28;20067;-77
2023/04/14 09:50:59;;;;;;;8.98;5.38;;;;;;;;;;5070084;28;20119;-77
2023/04/14 09:53:29;;;;;;;9.13;5.15;;;;;;;;;;5069719;28;20048;-77
2023/04/14 09:55:56;;;;;;;10.18;5.40;;;;;;;;;;5070082;28;20131;-77
2023/04/14 09:58:23;;;;;;;7.63;4.80;;;;;;;;;;5070632;28;20073;-78
2023/04/14 10:00:51;;;;;;;13.38;6.47;;;;;;;;;;5070558;28;20106;-77
2023/04/14 10:03:32;;;;;;;6.95;4.25;;;;;;;;;;5070536;28;20046;-77
2023/04/14 10:06:00;;;;;;;7.28;4.45;;;;;;;;;;5073170;28;20045;-78
2023/04/14 10:08:36;;;;;;;8.90;5.13;;;;;;;;;;5072362;28;20048;-77
2023/04/14 10:11:18;;;;;;;10.07;5.40;;;;;;;;;;5070776;28;20083;-76
2023/04/14 10:13:45;;;;;;;9.63;5.38;;;;;;;;;;5069964;28;20076;-77
2023/04/14 10:16:12;;;;;;;7.65;4.82;;;;;;;;;;5071860;28;20051;-77
2023/04/14 10:18:39;;;;;;;7.18;4.13;;;;;;;;;;5070923;28;20444;-80
2023/04/14 10:21:07;;;;;;;9.88;4.53;;;;;;;;;;5073749;28;20134;-80
2023/04/14 10:23:37;;;;;;;9.35;4.57;;;;;;;;;;5069459;28;20051;-77
2023/04/14 10:26:04;;;;;;;7.07;4.85;;;;;;;;;;5069781;28;20102;-76
2023/04/14 10:28:32;;;;;;;9.18;4.55;;;;;;;;;;5069624;28;20044;-76
2023/04/14 10:31:01;;;;;;;8.75;3.65;;;;;;;;;;5069808;28;20049;-76
2023/04/14 10:33:29;;;;;;;8.10;3.75;;;;;;;;;;5070690;28;20094;-77
2023/04/14 10:35:59;;;;;;;11.00;5.03;;;;;;;;;;5073520;28;20049;-77
2023/04/14 10:38:43;;;;;;;8.48;4.35;;;;;;;;;;5073642;28;20140;-77
2023/04/14 10:41:11;;;;;;;6.50;4.00;;;;;;;;;;5070984;28;20068;-78
2023/04/14 10:43:38;;;;;;;9.68;4.53;;;;;;;;;;5074736;28;20044;-78
2023/04/14 10:46:07;;;;;;;8.15;4.55;;;;;;;;;;5074700;28;20059;-78
2023/04/14 10:48:34;;;;;;;10.52;4.85;;;;;;;;;;5074294;28;20462;-78
2023/04/14 10:51:04;;;;;;;7.57;4.25;;;;;;;;;;5074594;28;20049;-78
2023/04/14 10:53:36;;;;;;;7.50;4.90;;;;;;;;;;5074656;28;20045;-78
2023/04/14 10:56:05;;;;;;;8.07;4.65;;;;;;;;;;5074698;28;20284;-77
2023/04/14 10:58:36;;;;;;;6.78;4.35;;;;;;;;;;5074398;28;20139;-78
2023/04/14 11:01:24;;;;;;;7.40;4.72;;;;;;;;;;5074472;28;20135;-77
2023/04/14 11:03:52;;;;;;;7.57;4.60;;;;;;;;;;5072976;28;20060;-77
2023/04/14 11:06:51;;;;;;;8.70;4.93;;;;;;;;;;5072987;28;20530;-77
2023/04/14 11:09:33;;;;;;;6.20;4.35;;;;;;;;;;5075521;28;20577;-78
2023/04/14 11:12:05;;;;;;;8.10;4.47;;;;;;;;;;5075325;28;20040;-76
2023/04/14 11:14:33;;;;;;;8.45;5.03;;;;;;;;;;5072834;28;20110;-77
2023/04/14 11:17:01;;;;;;;7.15;4.25;;;;;;;;;;5072530;28;20503;-76
2023/04/14 11:19:30;;;;;;;7.30;4.20;;;;;;;;;;5072466;28;20675;-77
2023/04/14 11:21:56;;;;;;;7.57;3.95;;;;;;;;;;5071803;28;20064;-77
2023/04/14 11:24:24;;;;;;;6.28;2.92;;;;;;;;;;5067319;28;20114;-78
2023/04/14 11:26:54;;;;;;;7.05;3.75;;;;;;;;;;5072719;28;20103;-77
2023/04/14 11:29:23;;;;;;;6.40;3.65;;;;;;;;;;5072281;28;20083;-77
2023/04/14 11:32:01;;;;;;;6.55;3.63;;;;;;;;;;5084468;22;20033;-79
2023/04/14 11:34:28;;;;;;;5.78;3.30;;;;;;;;;;5036035;28;20080;-79
2023/04/14 11:36:57;;;;;;;5.13;3.03;;;;;;;;;;5037647;28;20050;-79
2023/04/14 11:39:25;;;;;;;7.35;3.60;;;;;;;;;;5038346;28;20077;-79
2023/04/14 11:41:52;;;;;;;7.75;4.57;;;;;;;;;;5037826;28;20702;-80
2023/04/14 11:44:19;;;;;;;6.75;4.65;;;;;;;;;;5035913;28;20049;-79
2023/04/14 11:46:47;;;;;;;6.93;4.03;;;;;;;;;;5038901;28;20073;-80
2023/04/14 11:49:14;;;;;;;7.40;4.28;;;;;;;;;;5047993;28;20618;-80
2023/04/14 11:51:40;;;;;;;6.95;4.20;;;;;;;;;;5065735;28;20041;-80
2023/04/14 11:54:07;;;;;;;6.93;3.63;;;;;;;;;;5057812;28;20072;-79
2023/04/14 11:56:36;;;;;;;6.40;3.85;;;;;;;;;;5061031;28;20051;-80
2023/04/14 11:59:04;;;;;;;5.93;3.70;;;;;;;;;;5062014;28;20056;-79
2023/04/14 12:01:32;;;;;;;6.50;3.40;;;;;;;;;;5060579;28;20048;-79
2023/04/14 12:04:00;;;;;;;4.45;2.35;;;;;;;;;;5059921;28;20041;-79
2023/04/14 12:06:27;;;;;;;4.57;2.47;;;;;;;;;;5057898;28;20131;-80
2023/04/14 12:08:55;;;;;;;8.98;3.33;;;;;;;;;;5057656;28;20087;-81
2023/04/14 12:11:22;;;;;;;5.05;3.47;;;;;;;;;;5057672;28;20053;-79
2023/04/14 12:13:51;;;;;;;6.05;3.20;;;;;;;;;;5057163;28;20080;-78
2023/04/14 12:16:18;;;;;;;5.72;3.40;;;;;;;;;;5056703;28;20484;-78
2023/04/14 12:18:45;;;;;;;5.30;3.70;;;;;;;;;;5057228;28;20105;-79
2023/04/14 12:21:17;;;;;;;4.65;2.95;;;;;;;;;;5056640;28;20049;-79
2023/04/14 12:23:47;;;;;;;4.95;2.42;;;;;;;;;;5057719;28;20044;-78
2023/04/14 12:26:14;;;;;;;4.28;2.10;;;;;;;;;;5058489;28;20045;-79
2023/04/14 12:28:41;;;;;;;3.95;1.95;;;;;;;;;;5057780;28;20049;-78
2023/04/14 12:31:08;;;;;;;3.47;1.60;;;;;;;;;;5056970;28;20267;-79
2023/04/14 12:33:35;;;;;;;4.18;2.10;;;;;;;;;;5058008;28;20048;-79
2023/04/14 12:36:03;;;;;;;4.07;1.92;;;;;;;;;;5061189;28;20522;-78
2023/04/14 12:38:32;;;;;;;5.57;2.00;;;;;;;;;;5056694;28;20072;-78
2023/04/14 12:40:59;;;;;;;4.68;2.65;;;;;;;;;;5057117;28;20052;-79
2023/04/14 12:43:30;;;;;;;5.63;2.42;;;;;;;;;;5056156;28;20047;-79
2023/04/14 12:45:58;;;;;;;4.88;2.67;;;;;;;;;;5056271;28;20076;-79
2023/04/14 12:48:40;;;;;;;4.57;2.22;;;;;;;;;;5056248;28;20060;-79
2023/04/14 12:51:08;;;;;;;4.38;2.78;;;;;;;;;;5056315;28;20041;-79
2023/04/14 12:53:41;;;;;;;6.35;3.17;;;;;;;;;;5056290;28;20072;-79
2023/04/14 12:56:09;;;;;;;5.15;3.25;;;;;;;;;;5056115;28;20124;-79
2023/04/14 12:58:36;;;;;;;5.82;3.28;;;;;;;;;;5056912;28;20091;-79
2023/04/14 13:01:04;;;;;;;6.40;4.03;;;;;;;;;;5056445;28;20460;-79
2023/04/14 13:03:44;;;;;;;5.63;3.58;;;;;;;;;;5056860;28;20059;-78
2023/04/14 13:06:12;;;;;;;6.90;3.45;;;;;;;;;;5057888;28;20045;-79
2023/04/14 13:08:44;;;;;;;5.50;2.03;;;;;;;;;;5059113;28;20550;-79
2023/04/14 13:11:11;;;;;;;5.35;2.83;;;;;;;;;;5057285;28;20676;-79
2023/04/14 13:13:44;;;;;;;4.28;2.33;;;;;;;;;;5056862;28;20484;-79
2023/04/14 13:16:11;;;;;;;4.72;2.08;;;;;;;;;;5058136;28;20162;-79
2023/04/14 13:18:38;;;;;;;4.45;2.20;;;;;;;;;;5057695;28;20072;-79
2023/04/14 13:21:05;;;;;;;4.95;1.95;;;;;;;;;;5059335;28;20071;-79
2023/04/14 13:23:32;;;;;;;2.88;1.50;;;;;;;;;;5057287;28;20045;-80
2023/04/14 13:26:01;;;;;;;3.47;1.95;;;;;;;;;;5059539;28;20080;-79
2023/04/14 13:28:28;;;;;;;3.40;1.15;;;;;;;;;;5056553;28;20052;-79
2023/04/14 13:30:56;;;;;;;3.30;1.60;;;;;;;;;;5057651;28;20051;-79
2023/04/14 13:33:25;;;;;;;4.45;2.08;;;;;;;;;;5055592;28;20069;-79
2023/04/14 13:35:52;;;;;;;3.08;1.60;;;;;;;;;;5057961;28;20101;-79
2023/04/14 13:38:19;;;;;;;2.85;1.35;;;;;;;;;;5054619;28;20135;-79
2023/04/14 13:40:45;;;;;;;2.15;1.10;;;;;;;;;;5054896;28;20059;-79
2023/04/14 13:43:16;;;;;;;3.55;1.10;;;;;;;;;;5055395;28;20072;-79
2023/04/14 13:45:42;;;;;;;;;;;;;;;;;;5055491;28;20059;-79
2023/04/14 13:48:09;;;;;;;2.75;1.23;;;;;;;;;;5055116;28;19971;-79
2023/04/14 13:50:36;;;;;;;3.28;1.52;;;;;;;;;;5053089;28;20100;-78
2023/04/14 13:53:03;;;;;;;2.63;1.23;;;;;;;;;;5052504;28;20055;-78
2023/04/14 13:55:30;;;;;;;2.88;1.67;;;;;;;;;;5053778;28;20068;-79
2023/04/14 13:57:56;;;;;;;3.28;1.92;;;;;;;;;;5055523;28;20048;-79
2023/04/14 14:00:24;;;;;;;5.28;2.30;;;;;;;;;;5054447;28;20483;-78
2023/04/14 14:02:51;;;;;;;3.65;1.70;;;;;;;;;;5052142;28;20051;-78
2023/04/14 14:05:18;;;;;;;4.07;1.98;;;;;;;;;;5055317;28;20488;-80
2023/04/14 14:07:45;;;;;;;4.80;2.50;;;;;;;;;;5055396;28;20718;-79
2023/04/14 14:10:12;;;;;;;6.28;2.80;;;;;;;;;;5057807;28;20155;-79
2023/04/14 14:12:39;;;;;;;4.60;2.45;;;;;;;;;;5059688;28;20068;-78
2023/04/14 14:15:07;;;;;;;6.88;2.55;;;;;;;;;;5060206;28;20049;-79
2023/04/14 14:17:35;;;;;;;4.30;2.40;;;;;;;;;;5059045;28;20048;-79
2023/04/14 14:20:02;;;;;;;4.65;2.63;;;;;;;;;;5057823;28;20037;-79
2023/04/14 14:22:29;;;;;;;4.22;2.60;;;;;;;;;;5057890;28;20049;-79
2023/04/14 14:24:56;;;;;;;4.90;2.78;;;;;;;;;;5059936;28;20110;-80
2023/04/14 14:27:22;;;;;;;5.80;2.72;;;;;;;;;;5059270;28;20072;-79
2023/04/14 14:29:49;;;;;;;4.47;2.53;;;;;;;;;;5058817;28;20045;-79
2023/04/14 14:32:16;;;;;;;7.35;2.60;;;;;;;;;;5057885;28;20099;-79
2023/04/14 14:34:46;;;;;;;4.45;2.58;;;;;;;;;;5058360;28;20076;-79
2023/04/14 14:37:13;;;;;;;4.30;2.15;;;;;;;;;;5060226;28;20106;-79
2023/04/14 14:39:40;;;;;;;3.63;1.50;;;;;;;;;;5060505;28;20131;-79
2023/04/14 14:42:06;;;;;;;3.85;1.20;;;;;;;;;;5059491;28;20049;-81
2023/04/14 14:44:33;;;;;;;3.75;1.60;;;;;;;;;;5059953;28;20053;-80
2023/04/14 14:47:00;;;;;;;2.83;1.40;;;;;;;;;;5061251;28;20104;-83
2023/04/14 14:49:27;;;;;;;2.85;1.13;;;;;;;;;;5063143;28;20052;-78